Latest Weather Observations for Cooktown

IDQ60801

Issued at 9:43 pm EST Thursday 25 April 2024 (issued every 10 minutes, with the page automatically refreshed every 10 minutes)

About weather observations | Map of weather stations | Latest weather observations for QLD | Other Formats
Station Details ID: 031209 Name: COOKTOWN AIRPORT Lat: -15.45 Lon: 145.19 Height: 4.8 m
Data from the previous 72 hours. | See also: Recent months at Cooktown
Date/Time
EST
Temp
°C
App
Temp
°C
Dew
Point
°C
Rel
Hum
%
Delta-T
°C
Wind Press
QNH
hPa
Press
MSL
hPa
Rain since
9am
mm
Dir  Spd
km/h
Gust
km/h
Spd
kts
Gust
kts
25/09:30pm 24.8 27.1 20.7 78 2.7 SSE 9 15 5 8 1014.1 1014.1 0.2
25/09:00pm 24.9 26.9 20.8 78 2.7 SE 11 15 6 8 1014.4 1014.4 0.2
25/08:30pm 24.9 27.3 20.8 78 2.7 SE 9 13 5 7 1014.3 1014.3 0.2
25/08:00pm 24.7 27.6 21.0 80 2.4 SE 7 13 4 7 1013.8 1013.8 0.2
25/07:30pm 24.9 27.4 21.0 79 2.6 SE 9 15 5 8 1013.6 1013.6 0.2
25/07:00pm 24.8 27.5 21.3 81 2.3 SE 9 15 5 8 1013.4 1013.4 0.2
25/06:30pm 25.3 27.1 21.2 78 2.7 SE 13 20 7 11 1013.1 1013.1 0.2
25/06:00pm 25.6 27.1 20.6 74 3.3 SE 13 22 7 12 1012.9 1012.9 0.2
25/05:30pm 26.4 27.8 21.8 76 3.1 SE 17 24 9 13 1012.9 1012.9 0.2
25/05:00pm 27.0 27.9 22.0 74 3.4 SE 20 30 11 16 1012.8 1012.8 0.2
25/04:30pm 27.4 28.4 21.7 71 3.8 SE 19 28 10 15 1012.5 1012.5 0.2
25/04:00pm 27.6 28.6 22.1 72 3.7 SE 20 37 11 20 1012.5 1012.5 0.2
25/03:30pm 27.9 27.8 21.4 67 4.3 ESE 24 37 13 20 1012.4 1012.4 0.2
25/03:00pm 28.3 28.4 21.8 68 4.4 SE 24 35 13 19 1012.5 1012.5 0.2
25/02:30pm 28.5 29.2 22.3 69 4.2 SE 22 39 12 21 1012.5 1012.5 0.2
25/02:00pm 28.3 29.5 22.5 71 3.9 SE 20 33 11 18 1012.7 1012.7 0.2
25/01:30pm 28.8 29.2 22.5 68 4.3 SE 24 39 13 21 1013.0 1013.0 0.2
25/01:00pm 28.7 29.9 23.8 75 3.4 ESE 24 37 13 20 1013.2 1013.2 0.2
25/12:30pm 28.7 29.1 22.4 68 4.3 ESE 24 39 13 21 1013.6 1013.6 0.2
25/12:00pm 28.9 29.8 23.3 72 3.8 ESE 24 37 13 20 1013.9 1013.9 0.2
25/11:30am 29.0 30.7 24.1 75 3.4 ESE 22 37 12 20 1014.2 1014.2 0.2
25/11:00am 28.3 28.5 22.8 72 3.7 ESE 26 41 14 22 1014.6 1014.6 0.2
25/10:30am 27.1 28.5 22.9 78 2.9 ESE 20 30 11 16 1014.7 1014.7 0.0
25/10:00am 27.5 28.9 22.9 76 3.1 ESE 20 30 11 16 1014.8 1014.8 0.0
25/09:30am 27.4 29.0 22.8 76 3.1 ESE 19 30 10 16 1014.5 1014.5 0.0
25/09:00am 26.8 29.5 22.8 79 2.7 SE 13 26 7 14 1014.3 1014.3 18.8
25/08:30am 26.8 29.7 23.1 80 2.5 SSE 13 19 7 10 1014.2 1014.2 18.8
25/08:00am 25.9 28.4 22.4 81 2.4 SE 13 20 7 11 1014.0 1014.0 18.8
25/07:30am 25.5 28.0 22.4 83 2.1 SSE 13 17 7 9 1013.6 1013.6 18.8
25/07:00am 24.6 27.6 21.9 85 1.8 SE 9 15 5 8 1013.3 1013.3 18.8
25/06:30am 24.5 26.7 21.8 85 1.8 SE 13 19 7 10 1013.1 1013.1 18.8
25/06:00am 24.2 26.7 21.7 86 1.7 SE 11 17 6 9 1012.7 1012.7 18.8
25/05:30am 24.2 27.2 21.9 87 1.5 SE 9 15 5 8 1012.4 1012.4 18.8
25/05:00am 24.5 26.8 22.0 86 1.7 SE 13 17 7 9 1012.3 1012.3 18.8
25/04:30am 24.5 27.1 22.0 86 1.7 SE 11 19 6 10 1012.2 1012.2 18.8
25/04:00am 24.7 27.3 22.0 85 1.8 SE 11 17 6 9 1012.3 1012.3 18.8
25/03:30am 25.1 27.5 22.2 84 1.9 SE 13 20 7 11 1012.3 1012.3 18.8
25/03:00am 25.2 27.3 22.5 85 1.8 SE 15 26 8 14 1012.4 1012.4 18.8
25/02:30am 25.3 27.9 22.6 85 1.8 SE 13 19 7 10 1012.7 1012.7 18.8
25/02:00am 25.3 27.8 22.4 84 1.9 SE 13 20 7 11 1013.1 1013.1 18.8
25/01:30am 25.2 27.7 22.5 85 1.8 SE 13 19 7 10 1013.4 1013.4 18.8
25/01:00am 25.2 27.7 22.5 85 1.8 SE 13 17 7 9 1013.9 1013.9 18.8
25/12:30am 25.5 27.3 22.6 84 2.0 SE 17 30 9 16 1014.2 1014.2 18.8
25/12:00am 25.5 27.4 22.8 85 1.8 SE 17 26 9 14 1014.4 1014.4 18.8
 
Date/Time
EST
Temp
°C
App
Temp
°C
Dew
Point
°C
Rel
Hum
%
Delta-T
°C
Wind Press
QNH
hPa
Press
MSL
hPa
Rain since
9am
mm
Dir  Spd
km/h
Gust
km/h
Spd
kts
Gust
kts
24/11:30pm 25.6 27.6 22.9 85 1.8 SE 17 26 9 14 1014.6 1014.6 18.8
24/11:00pm 25.7 27.7 23.0 85 1.8 SE 17 28 9 15 1014.6 1014.6 18.8
24/10:30pm 25.7 28.2 23.2 86 1.7 SE 15 22 8 12 1014.3 1014.3 18.8
24/10:00pm 25.7 28.1 23.0 85 1.8 SE 15 24 8 13 1014.5 1014.5 18.8
24/09:30pm 25.8 28.0 23.3 86 1.7 SSE 17 28 9 15 1014.5 1014.5 18.8
24/09:02pm 25.8 28.6 23.7 88 1.4 SSE 15 30 8 16 1014.1 1014.1 18.8
24/09:00pm 25.7 28.5 23.6 88 1.4 SSE 15 26 8 14 1014.1 1014.1 18.8
24/08:30pm 25.2 28.8 23.8 92 1.0 SSE 11 17 6 9 1014.0 1014.0 18.8
24/08:24pm 25.0 29.0 23.8 93 0.8 SSE 9 15 5 8 1014.0 1014.0 18.8
24/08:00pm 25.1 28.6 23.5 91 1.1 SE 11 19 6 10 1013.7 1013.7 18.8
24/07:30pm 24.8 27.3 23.2 91 1.1 SE 15 26 8 14 1013.4 1013.4 18.8
24/07:00pm 24.7 26.8 23.1 91 1.1 SE 17 24 9 13 1013.1 1013.1 18.8
24/06:30pm 25.0 26.5 23.1 89 1.3 SE 20 35 11 19 1012.7 1012.7 18.8
24/06:00pm 25.4 27.3 23.5 89 1.3 SE 19 32 10 17 1012.5 1012.5 18.8
24/05:30pm 26.3 28.7 23.6 85 1.8 SE 17 22 9 12 1012.5 1012.5 18.8
24/05:00pm 26.8 28.9 23.7 83 2.1 SE 19 30 10 16 1012.2 1012.2 18.8
24/04:30pm 26.3 29.6 23.8 86 1.7 SE 13 22 7 12 1012.2 1012.2 18.8
24/04:00pm 26.3 28.2 23.8 86 1.7 SE 20 35 11 19 1012.0 1012.0 18.8
24/03:30pm 26.8 28.8 23.9 84 2.0 SE 20 35 11 19 1011.8 1011.8 18.8
24/03:00pm 27.2 28.5 24.1 83 2.1 SE 24 37 13 20 1012.1 1012.1 18.8
24/02:30pm 26.8 29.0 23.9 84 2.0 SE 19 28 10 15 1012.4 1012.4 18.8
24/02:00pm 27.5 30.9 24.6 84 2.0 SE 15 24 8 13 1012.7 1012.7 18.8
24/01:30pm 26.8 29.5 24.1 85 1.9 SE 17 28 9 15 1013.0 1013.0 18.8
24/01:00pm 27.2 29.9 25.0 88 1.5 SE 20 37 11 20 1013.2 1013.2 18.8
24/12:30pm 26.2 30.3 25.2 94 0.7 SE 13 20 7 11 1013.4 1013.4 18.8
24/12:14pm 26.2 29.0 25.0 93 0.8 SE 19 32 10 17 1013.6 1013.6 18.8
24/12:13pm 26.1 28.9 24.9 93 0.8 SE 19 32 10 17 1013.6 1013.6 18.8
24/12:00pm 25.9 28.4 24.7 93 0.8 ESE 20 26 11 14 1013.7 1013.7 18.8
24/11:53am 26.1 28.9 24.9 93 0.8 ESE 19 28 10 15 1013.8 1013.8 18.4
24/11:52am 26.2 29.3 24.8 92 1.0 ESE 17 28 9 15 1013.8 1013.8 18.4
24/11:35am 26.0 29.1 24.8 93 0.8 SE 17 28 9 15 1013.8 1013.8 17.6
24/11:30am 25.9 29.7 24.7 93 0.8 SE 13 28 7 15 1013.9 1013.9 17.6
24/11:23am 25.7 29.2 24.8 95 0.6 SE 15 30 8 16 1014.0 1014.0 17.6
24/11:14am 25.7 28.5 24.3 92 1.0 SE 17 35 9 19 1014.1 1014.1 17.4
24/11:08am 25.8 30.0 24.8 94 0.7 SE 11 22 6 12 1014.2 1014.2 17.0
24/11:00am 25.4 29.0 24.4 94 0.7 SE 13 22 7 12 1014.3 1014.3 17.0
24/10:30am 25.2 28.1 24.5 96 0.5 SE 17 28 9 15 1014.9 1014.9 15.2
24/10:00am 24.9 27.1 24.2 96 0.5 ESE 20 32 11 17 1014.8 1014.8 6.0
24/09:30am 25.4 28.4 24.7 96 0.5 SE 17 26 9 14 1014.2 1014.2 2.2
24/09:28am 25.3 28.3 24.6 96 0.5 SE 17 26 9 14 1014.2 1014.2 2.2
24/09:25am 25.1 27.5 24.2 95 0.6 SE 19 28 10 15 1014.2 1014.2 2.0
24/09:00am 24.9 27.9 24.0 95 0.6 SE 15 24 8 13 1014.2 1014.2 10.2
24/08:51am 24.8 27.3 23.8 94 0.7 SE 17 28 9 15 1014.0 1014.0 10.2
24/08:46am 24.8 27.2 23.6 93 0.8 SE 17 26 9 14 1013.9 1013.9 10.0
24/08:30am 24.8 29.1 24.3 97 0.3 SSE 9 15 5 8 1013.7 1013.7 10.0
24/08:29am 24.8 29.0 24.1 96 0.5 SSE 9 15 5 8 1013.7 1013.7 10.0
24/08:26am 24.7 28.8 24.0 96 0.5 SSE 9 17 5 9 1013.7 1013.7 9.6
24/08:06am 24.8 29.0 24.1 96 0.5 SE 9 13 5 7 1013.5 1013.5 7.6
24/08:05am 24.8 28.6 24.1 96 0.5 SE 11 13 6 7 1013.5 1013.5 7.6
24/08:00am 24.8 28.2 24.1 96 0.5 ESE 13 24 7 13 1013.4 1013.4 7.6
24/07:42am 24.8 27.7 23.9 95 0.6 SE 15 26 8 14 1013.3 1013.3 7.2
24/07:30am 24.7 28.2 23.5 93 0.8 SE 11 19 6 10 1012.8 1012.8 6.8
24/07:21am 24.8 28.1 23.9 95 0.6 SE 13 19 7 10 1012.6 1012.6 6.8
24/07:17am 24.7 28.5 24.0 96 0.5 SE 11 17 6 9 1012.6 1012.6 6.8
24/07:05am 24.5 27.4 23.8 96 0.5 ESE 15 22 8 12 1012.4 1012.4 6.8
24/07:00am 24.6 27.2 23.9 96 0.5 ESE 17 26 9 14 1012.4 1012.4 6.8
24/06:34am 24.5 26.9 23.6 95 0.6 SE 17 28 9 15 1012.2 1012.2 5.4
24/06:30am 24.6 27.4 23.7 95 0.6 SSE 15 28 8 15 1012.1 1012.1 5.2
24/06:16am 24.5 28.0 23.5 94 0.7 SE 11 15 6 8 1011.8 1011.8 5.0
24/06:11am 24.4 27.8 23.4 94 0.7 SE 11 17 6 9 1011.8 1011.8 5.0
24/06:07am 24.3 27.7 23.3 94 0.7 SE 11 17 6 9 1011.8 1011.8 5.0
24/06:00am 24.3 27.3 23.3 94 0.7 SE 13 20 7 11 1011.7 1011.7 5.0
24/05:52am 24.6 27.8 23.7 95 0.6 SSE 13 24 7 13 1011.8 1011.8 5.0
24/05:49am 24.6 27.8 23.7 95 0.6 SSE 13 24 7 13 1011.8 1011.8 5.0
24/05:40am 24.7 28.0 23.8 95 0.6 SSE 13 17 7 9 1011.6 1011.6 5.0
24/05:34am 24.7 28.0 23.8 95 0.6 SSE 13 17 7 9 1011.5 1011.5 5.0
24/05:30am 24.7 28.0 23.8 95 0.6 SSE 13 20 7 11 1011.5 1011.5 5.0
24/05:17am 24.8 27.7 23.9 95 0.6 SE 15 24 8 13 1011.4 1011.4 4.8
24/05:04am 24.8 28.1 23.9 95 0.6 SE 13 22 7 12 1011.2 1011.2 4.6
24/05:00am 24.9 28.3 24.0 95 0.6 SE 13 22 7 12 1011.1 1011.1 4.6
24/04:57am 24.7 27.1 23.7 94 0.7 ESE 17 28 9 15 1011.1 1011.1 4.6
24/04:52am 24.6 26.6 23.6 94 0.7 ESE 19 28 10 15 1011.0 1011.0 4.6
24/04:33am 24.7 28.0 23.8 95 0.6 SSE 13 19 7 10 1011.1 1011.1 4.4
24/04:30am 24.7 28.0 23.8 95 0.6 SSE 13 20 7 11 1011.1 1011.1 4.4
24/04:26am 24.7 27.6 23.8 95 0.6 SSE 15 20 8 11 1011.2 1011.2 4.4
24/04:00am 24.7 29.3 24.2 97 0.3 E 7 11 4 6 1011.5 1011.5 3.2
24/03:55am 24.7 29.4 24.0 96 0.5 ESE 6 9 3 5 1011.5 1011.5 2.4
24/03:54am 24.7 29.2 24.0 96 0.5 ESE 7 9 4 5 1011.5 1011.5 2.2
24/03:30am 24.6 29.1 23.9 96 0.5 S 7 11 4 6 1011.5 1011.5 2.0
24/03:27am 24.6 29.1 23.9 96 0.5 SSE 7 13 4 7 1011.5 1011.5 2.0
24/03:06am 24.6 28.6 23.7 95 0.6 SSE 9 15 5 8 1011.8 1011.8 1.8
24/03:00am 24.6 28.2 23.7 95 0.6 SSE 11 15 6 8 1011.8 1011.8 1.8
24/02:50am 24.5 28.4 23.6 95 0.6 SE 9 15 5 8 1011.7 1011.7 1.8
24/02:33am 24.6 27.5 23.9 96 0.5 SSE 15 24 8 13 1011.7 1011.7 1.8
24/02:30am 24.6 27.5 23.9 96 0.5 SSE 15 24 8 13 1011.7 1011.7 1.8
24/02:23am 24.6 27.4 23.7 95 0.6 SE 15 22 8 12 1011.8 1011.8 1.6
24/02:09am 24.6 27.8 23.7 95 0.6 SSE 13 20 7 11 1012.0 1012.0 1.6
24/02:07am 24.6 27.9 23.9 96 0.5 SSE 13 20 7 11 1012.0 1012.0 1.6
24/02:00am 24.7 28.1 24.0 96 0.5 SE 13 20 7 11 1012.1 1012.1 1.6
24/01:56am 24.7 28.1 24.0 96 0.5 SE 13 20 7 11 1012.1 1012.1 1.6
24/01:30am 24.8 27.9 24.1 96 0.5 E 15 20 8 11 1012.7 1012.7 0.4
24/01:17am 24.9 28.6 23.9 94 0.7 SE 11 19 6 10 1012.7 1012.7 0.0
24/01:00am 25.1 28.4 23.9 93 0.8 SE 13 24 7 13 1012.9 1012.9 0.0
24/12:30am 25.5 28.7 23.7 90 1.2 SE 13 22 7 12 1013.1 1013.1 0.0
24/12:25am 25.6 28.8 23.7 89 1.3 SE 13 22 7 12 1013.1 1013.1 0.0
24/12:00am 25.5 27.9 23.6 89 1.3 SE 17 28 9 15 1013.2 1013.2 0.0
 
Date/Time
EST
Temp
°C
App
Temp
°C
Dew
Point
°C
Rel
Hum
%
Delta-T
°C
Wind Press
QNH
hPa
Press
MSL
hPa
Rain since
9am
mm
Dir  Spd
km/h
Gust
km/h
Spd
kts
Gust
kts
23/11:30pm 25.7 27.6 23.7 89 1.4 SE 20 30 11 16 1013.1 1013.1 0.0
23/11:00pm 25.6 27.7 23.8 90 1.2 SE 19 28 10 15 1013.5 1013.5 0.0
23/10:57pm 25.6 27.7 23.8 90 1.2 SE 19 28 10 15 1013.5 1013.5 0.0
23/10:40pm 25.6 28.2 24.0 91 1.1 SE 17 28 9 15 1013.5 1013.5 0.0
23/10:30pm 25.5 27.7 23.9 91 1.1 SE 19 26 10 14 1013.4 1013.4 0.0
23/10:00pm 25.6 27.5 23.7 89 1.3 SE 20 35 11 19 1013.5 1013.5 0.0
23/09:30pm 25.4 29.2 23.5 89 1.3 SE 9 19 5 10 1013.7 1013.7 0.0
23/09:00pm 25.3 29.1 23.5 90 1.2 SE 9 15 5 8 1013.6 1013.6 0.0
23/08:30pm 25.3 28.0 23.5 90 1.2 SE 15 26 8 14 1013.4 1013.4 0.0
23/08:00pm 24.8 28.7 23.6 93 0.8 SE 9 17 5 9 1013.0 1013.0 0.0
23/07:30pm 25.6 27.7 23.7 89 1.3 SE 19 33 10 18 1012.8 1012.8 0.0
23/07:00pm 25.5 27.9 23.6 89 1.3 SE 17 26 9 14 1012.7 1012.7 0.0
23/06:30pm 25.7 28.8 23.6 88 1.4 SE 13 24 7 13 1012.3 1012.3 0.0
23/06:00pm 26.5 29.2 23.4 83 2.1 SE 15 26 8 14 1012.0 1012.0 0.0
23/05:30pm 26.5 28.8 23.4 83 2.1 ESE 17 24 9 13 1011.7 1011.7 0.0
23/05:00pm 27.1 29.2 23.1 79 2.7 ESE 17 22 9 12 1011.5 1011.5 0.0
23/04:30pm 27.6 29.5 23.4 78 2.9 ESE 19 28 10 15 1011.6 1011.6 0.0
23/04:00pm 27.8 29.1 23.4 77 3.0 ESE 22 35 12 19 1011.5 1011.5 0.0
23/03:30pm 27.7 29.6 23.7 79 2.7 SE 20 32 11 17 1011.3 1011.3 0.0
23/03:00pm 27.9 28.8 23.3 76 3.1 SE 24 39 13 21 1011.4 1011.4 0.0
23/02:30pm 28.4 28.9 23.3 74 3.5 ESE 26 44 14 24 1011.5 1011.5 0.0
23/02:00pm 29.0 30.6 23.9 74 3.5 SE 22 35 12 19 1011.7 1011.7 0.0
23/01:30pm 29.4 31.4 24.0 72 3.7 SE 20 28 11 15 1012.1 1012.1 0.0
23/01:00pm 29.4 31.2 24.3 74 3.5 SE 22 32 12 17 1012.2 1012.2 0.0
23/12:30pm 29.2 30.3 23.6 72 3.9 SE 24 43 13 23 1012.7 1012.7 0.0
23/12:00pm 29.0 30.1 23.7 73 3.7 SE 24 37 13 20 1012.9 1012.9 0.0
23/11:30am 28.8 29.2 23.2 71 3.8 ESE 26 37 14 20 1013.5 1013.5 0.0
23/11:00am 28.5 28.7 22.7 71 3.9 ESE 26 37 14 20 1014.0 1014.0 0.0
23/10:30am 27.9 28.4 22.6 73 3.6 ESE 24 35 13 19 1014.2 1014.2 0.0
23/10:00am 27.8 29.0 22.5 73 3.6 SE 20 32 11 17 1014.2 1014.2 0.0
23/09:30am 27.6 28.4 22.5 74 3.4 SE 22 33 12 18 1014.0 1014.0 0.0
23/09:00am 27.1 28.3 22.5 76 3.1 SE 20 32 11 17 1013.8 1013.8 0.0
23/08:30am 26.4 28.3 22.0 77 2.9 SE 15 32 8 17 1013.6 1013.6 0.0
23/08:00am 26.0 27.8 21.9 78 2.7 SE 15 30 8 16 1013.4 1013.4 0.0
23/07:30am 26.0 27.3 21.7 77 2.9 SE 17 30 9 16 1013.2 1013.2 0.0
23/07:00am 25.4 26.4 21.1 77 2.8 SE 17 28 9 15 1012.7 1012.7 0.0
23/06:30am 25.4 26.3 20.9 76 3.0 SE 17 26 9 14 1012.7 1012.7 0.0
23/06:00am 25.1 27.1 20.8 77 2.8 SE 11 20 6 11 1012.4 1012.4 0.0
23/05:30am 25.2 26.4 20.7 76 2.9 SE 15 24 8 13 1012.0 1012.0 0.0
23/05:00am 25.0 26.1 20.5 76 2.9 SE 15 24 8 13 1011.8 1011.8 0.0
23/04:30am 24.8 26.6 20.3 76 2.9 SE 11 19 6 10 1011.9 1011.9 0.0
23/04:00am 24.8 26.1 20.1 75 3.0 SE 13 19 7 10 1012.0 1012.0 0.0
23/03:30am 24.5 26.4 19.8 75 3.0 SE 9 15 5 8 1012.2 1012.2 0.0
23/03:00am 24.1 25.8 19.4 75 3.0 SSE 9 11 5 6 1012.1 1012.1 0.0
23/02:30am 24.4 26.5 19.0 72 3.4 SSE 6 13 3 7 1012.4 1012.4 0.0
23/02:00am 24.5 25.9 18.7 70 3.7 SE 9 19 5 10 1012.5 1012.5 0.0
23/01:30am 24.7 25.9 18.2 67 4.1 SE 9 13 5 7 1013.0 1013.0 0.0
23/01:00am 24.5 24.9 17.2 63 4.5 SSE 11 15 6 8 1013.3 1013.3 0.0
23/12:30am 24.9 24.9 17.1 62 4.8 SE 13 17 7 9 1013.7 1013.7 0.0
23/12:00am 25.0 24.6 17.2 62 4.8 ESE 15 24 8 13 1013.9 1013.9 0.0
 
Date/Time
EST
Temp
°C
App
Temp
°C
Dew
Point
°C
Rel
Hum
%
Delta-T
°C
Wind Press
QNH
hPa
Press
MSL
hPa
Rain since
9am
mm
Dir  Spd
km/h
Gust
km/h
Spd
kts
Gust
kts
22/11:30pm 25.1 24.7 17.1 61 5.0 ESE 15 26 8 14 1013.8 1013.8 0.0
22/11:00pm 25.4 24.9 17.8 62 4.8 SE 17 26 9 14 1013.7 1013.7 0.0
22/10:30pm 25.6 24.7 17.8 62 4.9 ESE 19 32 10 17 1013.8 1013.8 0.0
22/10:00pm 25.5 24.9 18.4 65 4.5 ESE 19 28 10 15 1013.7 1013.7 0.0

Other formats

Comma delimited format used in spreadsheet applications
http://www.bom.gov.au/fwo/IDQ60801/IDQ60801.95283.axf

JavaScript Object Notation format (JSON) in row-major order
http://www.bom.gov.au/fwo/IDQ60801/IDQ60801.95283.json

Data quality

Most of these data are generated automatically and are frequently updated. Quality checks on data are not normally performed. It is possible for incorrect values to appear. Refer to information at About Latest Weather Observations and please check the disclaimer before using these data.